Terminal Aerodrome Forecast
Issued by NWS Goodland, KS

Home | Current Version | Previous Version | Text Only | Print | Product List | Glossary On
Versions: 1 2 3 4 5 6 7 8 9 10 11 12 13 14 15 16 17 18
590
FTUS43 KGLD 201327 AAA
TAFGLD
TAF AMD
KGLD 201327Z 2013/2112 33011KT P6SM SCT025
      TEMPO 2013/2015 BKN025
     FM201500 01009KT P6SM SCT050=

USA.gov is the U.S. government's official web portal to all federal, state and local government web resources and services.